createdAt,value
2017-10-10T00:02:13.140Z,15.31
2017-10-10T00:04:41.502Z,15.38
2017-10-10T00:07:09.868Z,15.26
2017-10-10T00:09:38.414Z,15.26
2017-10-10T00:12:07.598Z,15.12
2017-10-10T00:14:35.943Z,15.06
2017-10-10T00:17:04.323Z,15.08
2017-10-10T00:19:32.690Z,15.19
2017-10-10T00:22:02.190Z,15.20
2017-10-10T00:24:30.811Z,15.29
2017-10-10T00:26:59.959Z,15.37
2017-10-10T00:29:28.320Z,15.42
2017-10-10T00:31:57.641Z,15.37
2017-10-10T00:34:26.005Z,15.20
2017-10-10T00:36:54.582Z,15.16
2017-10-10T00:39:22.975Z,15.14
2017-10-10T00:41:51.334Z,15.15
2017-10-10T00:44:21.370Z,15.16
2017-10-10T00:46:49.743Z,15.23
2017-10-10T00:49:18.078Z,15.19
2017-10-10T00:51:46.466Z,15.11
2017-10-10T00:54:15.247Z,15.07
2017-10-10T00:56:44.596Z,15.16
2017-10-10T00:59:12.967Z,15.21
2017-10-10T01:01:41.720Z,15.23
2017-10-10T01:04:10.159Z,15.26
2017-10-10T01:06:38.535Z,15.30
2017-10-10T01:09:07.729Z,15.33
2017-10-10T01:11:36.087Z,15.30
2017-10-10T01:14:04.449Z,15.27
2017-10-10T01:16:34.500Z,15.34
2017-10-10T01:19:03.452Z,15.28
2017-10-10T01:21:32.820Z,15.23
2017-10-10T01:24:01.822Z,15.32
2017-10-10T01:26:30.687Z,15.43
2017-10-10T01:29:01.035Z,15.49
2017-10-10T01:31:30.066Z,15.35
2017-10-10T01:33:58.406Z,15.06
2017-10-10T01:36:26.776Z,14.85
2017-10-10T01:38:55.314Z,14.94
2017-10-10T01:41:24.460Z,14.94
2017-10-10T01:43:54.145Z,14.92
2017-10-10T01:46:23.337Z,14.96
2017-10-10T01:48:51.689Z,14.96
2017-10-10T01:51:20.066Z,14.89
2017-10-10T01:53:49.200Z,14.96
2017-10-10T01:56:19.606Z,14.91
2017-10-10T01:58:47.979Z,15.01
2017-10-10T02:01:17.204Z,14.82
2017-10-10T02:03:45.555Z,14.67
2017-10-10T02:06:16.376Z,14.71
2017-10-10T02:08:44.746Z,14.62
2017-10-10T02:11:13.102Z,14.78
2017-10-10T02:13:41.662Z,14.71
2017-10-10T02:16:11.018Z,14.83
2017-10-10T02:18:40.174Z,14.76
2017-10-10T02:21:10.603Z,15.03
2017-10-10T02:23:39.658Z,14.87
2017-10-10T02:26:09.816Z,15.02
2017-10-10T02:28:38.168Z,15.03
2017-10-10T02:31:06.544Z,14.98
2017-10-10T02:33:35.610Z,15.07
2017-10-10T02:36:04.879Z,15.07
2017-10-10T02:38:34.137Z,14.81
2017-10-10T02:41:03.761Z,14.83
2017-10-10T02:43:32.803Z,14.83
2017-10-10T02:46:01.257Z,14.74
2017-10-10T02:48:30.237Z,14.57
2017-10-10T02:50:59.284Z,14.84
2017-10-10T02:53:28.600Z,14.83
2017-10-10T02:55:57.163Z,14.86
2017-10-10T02:58:26.450Z,14.88
2017-10-10T03:00:54.811Z,15.04
2017-10-10T03:03:23.186Z,15.10
2017-10-10T03:05:51.638Z,15.14
2017-10-10T03:08:22.618Z,15.02
2017-10-10T03:10:50.999Z,14.96
2017-10-10T03:13:19.357Z,14.82
2017-10-10T03:15:47.721Z,14.85
2017-10-10T03:18:16.289Z,14.80
2017-10-10T03:20:46.164Z,14.81
2017-10-10T03:23:14.531Z,14.78
2017-10-10T03:25:43.154Z,14.67
2017-10-10T03:28:11.508Z,14.64
2017-10-10T03:30:42.436Z,14.64
2017-10-10T03:33:11.420Z,14.71
2017-10-10T03:35:39.802Z,14.62
2017-10-10T03:38:08.881Z,14.35
2017-10-10T03:40:37.256Z,14.42
2017-10-10T03:43:06.795Z,14.44
2017-10-10T03:45:36.085Z,14.38
2017-10-10T03:48:04.785Z,14.26
2017-10-10T03:50:33.127Z,14.45
2017-10-10T03:53:03.270Z,14.62
2017-10-10T03:55:32.577Z,14.67
2017-10-10T03:58:01.494Z,14.60
2017-10-10T04:00:30.583Z,14.77
2017-10-10T04:02:58.941Z,14.81
2017-10-10T04:05:27.289Z,14.81
2017-10-10T04:07:56.683Z,14.88
2017-10-10T04:10:26.326Z,14.80
2017-10-10T04:12:55.944Z,14.81
2017-10-10T04:15:25.314Z,14.98
2017-10-10T04:17:55.375Z,15.13
2017-10-10T04:20:24.375Z,15.10
2017-10-10T04:22:53.237Z,15.05
2017-10-10T04:25:22.494Z,15.18
2017-10-10T04:27:52.279Z,15.16
2017-10-10T04:30:20.642Z,15.15
2017-10-10T04:32:49.004Z,14.64
2017-10-10T04:35:17.382Z,14.83
2017-10-10T04:37:46.573Z,14.77
2017-10-10T04:40:15.146Z,14.68
2017-10-10T04:42:44.326Z,14.52
2017-10-10T04:45:12.902Z,14.58
2017-10-10T04:47:43.196Z,14.48
2017-10-10T04:50:12.246Z,14.49
2017-10-10T04:52:41.219Z,14.54
2017-10-10T04:55:10.314Z,14.59
2017-10-10T04:57:39.436Z,14.80
2017-10-10T05:00:09.219Z,14.91
2017-10-10T05:02:37.578Z,14.84
2017-10-10T05:05:07.635Z,14.59
2017-10-10T05:07:36.768Z,14.42
2017-10-10T05:10:05.131Z,14.62
2017-10-10T05:12:33.945Z,14.54
2017-10-10T05:15:03.243Z,14.65
2017-10-10T05:17:32.542Z,14.80
2017-10-10T05:20:01.914Z,14.99
2017-10-10T05:22:30.326Z,14.98
2017-10-10T05:24:58.695Z,14.95
2017-10-10T05:27:27.263Z,15.18
2017-10-10T05:29:56.464Z,15.05
2017-10-10T05:32:24.834Z,15.24
2017-10-10T05:34:53.197Z,15.19
2017-10-10T05:37:22.474Z,15.26
2017-10-10T05:39:50.816Z,15.31
2017-10-10T05:42:20.737Z,15.34
2017-10-10T05:44:49.735Z,15.21
2017-10-10T05:47:19.750Z,15.25
2017-10-10T05:49:48.107Z,15.09
2017-10-10T05:52:16.703Z,15.08
2017-10-10T05:54:45.067Z,15.32
2017-10-10T05:57:14.952Z,15.42
2017-10-10T05:59:43.375Z,15.28
2017-10-10T06:02:11.747Z,15.11
2017-10-10T06:04:41.232Z,15.06
2017-10-10T06:07:10.569Z,15.29
2017-10-10T06:09:40.446Z,15.30
2017-10-10T06:12:09.612Z,15.09
2017-10-10T06:14:38.850Z,15.31
2017-10-10T06:17:07.216Z,15.40
2017-10-10T06:19:36.713Z,15.54
2017-10-10T06:22:07.179Z,15.55
2017-10-10T06:24:36.229Z,15.29
2017-10-10T06:27:05.829Z,15.41
2017-10-10T06:29:34.548Z,15.22
2017-10-10T06:32:02.973Z,15.30
2017-10-10T06:34:32.171Z,15.61
2017-10-10T06:37:00.556Z,15.62
2017-10-10T06:39:29.943Z,15.28
2017-10-10T06:41:58.297Z,15.41
2017-10-10T06:44:26.675Z,15.34
2017-10-10T06:46:56.810Z,15.11
2017-10-10T06:49:25.174Z,15.34
2017-10-10T06:51:54.986Z,15.34
2017-10-10T06:54:23.567Z,15.05
2017-10-10T06:56:51.993Z,15.11
2017-10-10T06:59:20.647Z,15.12
2017-10-10T07:01:49.000Z,15.22
2017-10-10T07:04:18.165Z,15.16
2017-10-10T07:06:47.065Z,14.95
2017-10-10T07:09:16.237Z,15.31
2017-10-10T07:11:44.621Z,15.22
2017-10-10T07:14:13.193Z,15.54
2017-10-10T07:16:41.569Z,15.68
2017-10-10T07:19:09.953Z,15.68
2017-10-10T07:21:38.337Z,15.47
2017-10-10T07:24:07.402Z,15.67
2017-10-10T07:26:36.000Z,15.74
2017-10-10T07:29:04.363Z,15.63
2017-10-10T07:31:33.743Z,15.64
2017-10-10T07:34:02.091Z,15.84
2017-10-10T07:36:30.541Z,16.14
2017-10-10T07:38:59.662Z,16.35
2017-10-10T07:41:28.013Z,16.17
2017-10-10T07:43:56.444Z,15.80
2017-10-10T07:46:24.828Z,15.92
2017-10-10T07:48:53.236Z,15.70
2017-10-10T07:51:21.626Z,15.34
2017-10-10T07:53:51.677Z,15.58
2017-10-10T07:56:20.730Z,15.90
2017-10-10T07:58:49.148Z,16.00
2017-10-10T08:01:18.106Z,16.05
2017-10-10T08:03:46.455Z,15.89
2017-10-10T08:06:16.374Z,15.68
2017-10-10T08:08:45.512Z,15.96
2017-10-10T08:11:14.755Z,16.07
2017-10-10T08:13:43.118Z,16.20
2017-10-10T08:16:12.453Z,16.27
2017-10-10T08:18:40.793Z,16.42
2017-10-10T08:21:09.358Z,16.15
2017-10-10T08:23:38.977Z,16.18
2017-10-10T08:26:08.315Z,15.88
2017-10-10T08:28:38.077Z,16.10
2017-10-10T08:31:08.525Z,16.27
2017-10-10T08:33:36.867Z,16.30
2017-10-10T08:36:06.057Z,16.19
2017-10-10T08:38:34.418Z,16.36
2017-10-10T08:41:03.927Z,16.01
2017-10-10T08:43:32.444Z,16.36
2017-10-10T08:46:01.816Z,16.35
2017-10-10T08:48:30.240Z,16.45
2017-10-10T08:50:58.606Z,16.63
2017-10-10T08:53:26.952Z,16.67
2017-10-10T08:55:57.001Z,16.58
2017-10-10T08:58:26.300Z,16.60
2017-10-10T09:00:55.414Z,16.79
2017-10-10T09:03:23.771Z,16.77
2017-10-10T09:05:53.285Z,16.58
2017-10-10T09:08:22.346Z,16.42
2017-10-10T09:10:51.822Z,16.35
2017-10-10T09:13:20.206Z,16.57
2017-10-10T09:15:48.574Z,16.40
2017-10-10T09:18:17.488Z,16.41
2017-10-10T09:20:45.859Z,16.59
2017-10-10T09:23:15.734Z,16.66
2017-10-10T09:25:44.094Z,16.81
2017-10-10T09:28:12.595Z,16.68
2017-10-10T09:30:41.173Z,16.45
2017-10-10T09:33:10.244Z,16.50
2017-10-10T09:35:39.368Z,16.72
2017-10-10T09:38:07.746Z,16.33
2017-10-10T09:40:36.206Z,16.20
2017-10-10T09:43:05.903Z,16.47
2017-10-10T09:45:34.276Z,16.58
2017-10-10T09:48:02.634Z,16.75
2017-10-10T09:50:31.119Z,16.39
2017-10-10T09:53:00.392Z,16.50
2017-10-10T09:55:28.749Z,16.41
2017-10-10T09:57:58.003Z,16.28
2017-10-10T10:00:26.888Z,16.50
2017-10-10T10:02:55.627Z,16.58
2017-10-10T10:05:24.003Z,16.61
2017-10-10T10:07:53.129Z,16.42
2017-10-10T10:10:21.667Z,16.11
2017-10-10T10:12:50.243Z,16.38
2017-10-10T10:15:18.593Z,16.51
2017-10-10T10:17:47.059Z,16.75
2017-10-10T10:20:15.427Z,16.90
2017-10-10T10:22:43.795Z,16.87
2017-10-10T10:25:12.993Z,16.85
2017-10-10T10:27:42.919Z,17.12
2017-10-10T10:30:11.286Z,17.24
2017-10-10T10:32:39.638Z,17.03
2017-10-10T10:35:09.439Z,16.94
2017-10-10T10:37:37.794Z,17.10
2017-10-10T10:40:06.152Z,17.13
2017-10-10T10:42:36.626Z,17.39
2017-10-10T10:45:05.935Z,17.44
2017-10-10T10:47:34.282Z,17.69
2017-10-10T10:50:02.654Z,17.85
2017-10-10T10:52:30.994Z,17.69
2017-10-10T10:54:59.341Z,17.89
2017-10-10T10:57:28.203Z,17.77
2017-10-10T10:59:56.918Z,17.48
2017-10-10T11:02:26.100Z,17.18
2017-10-10T11:04:56.194Z,17.47
2017-10-10T11:07:25.307Z,17.73
2017-10-10T11:09:53.665Z,18.01
2017-10-10T11:12:23.537Z,17.86
2017-10-10T11:14:51.927Z,17.74
2017-10-10T11:17:22.006Z,17.65
2017-10-10T11:19:50.456Z,17.47
2017-10-10T11:22:19.515Z,17.55
2017-10-10T11:24:48.698Z,17.36
2017-10-10T11:27:17.889Z,17.41
2017-10-10T11:29:46.318Z,17.60
2017-10-10T11:32:15.438Z,17.74
2017-10-10T11:34:44.683Z,17.54
2017-10-10T11:37:13.117Z,17.26
2017-10-10T11:39:41.451Z,17.31
2017-10-10T11:42:10.679Z,17.87
2017-10-10T11:44:39.293Z,19.29
2017-10-10T11:47:07.679Z,20.68
2017-10-10T11:49:36.051Z,21.28
2017-10-10T11:52:04.416Z,20.62
2017-10-10T11:54:32.808Z,20.10
2017-10-10T11:57:01.514Z,19.27
2017-10-10T11:59:29.866Z,19.32
2017-10-10T12:01:58.217Z,19.14
2017-10-10T12:04:27.689Z,19.70
2017-10-10T12:06:56.791Z,21.50
2017-10-10T12:09:25.158Z,24.15
2017-10-10T12:11:53.541Z,26.37
2017-10-10T12:14:21.886Z,27.53
2017-10-10T12:16:50.244Z,26.44
2017-10-10T12:19:19.080Z,26.98
2017-10-10T12:21:47.429Z,25.97
2017-10-10T12:24:17.564Z,26.08
2017-10-10T12:26:46.111Z,26.20
2017-10-10T12:29:14.509Z,25.93
2017-10-10T12:31:45.772Z,25.72
2017-10-10T12:34:14.143Z,25.69
2017-10-10T12:36:42.538Z,26.15
2017-10-10T12:39:11.574Z,26.39
2017-10-10T12:41:41.503Z,27.01
2017-10-10T12:44:10.673Z,27.06
2017-10-10T12:46:40.575Z,26.15
2017-10-10T12:49:10.050Z,26.58
2017-10-10T12:51:38.406Z,27.45
2017-10-10T12:54:07.608Z,28.38
2017-10-10T12:56:36.626Z,27.74
2017-10-10T12:59:04.981Z,27.41
2017-10-10T13:01:33.347Z,27.40
2017-10-10T13:04:02.124Z,27.96
2017-10-10T13:06:31.567Z,27.99
2017-10-10T13:08:59.918Z,28.94
2017-10-10T13:11:29.957Z,28.46
2017-10-10T13:13:58.310Z,26.63
2017-10-10T13:16:28.357Z,27.03
2017-10-10T13:18:56.767Z,26.92
2017-10-10T13:21:25.872Z,26.21
2017-10-10T13:23:54.270Z,26.27
2017-10-10T13:26:24.297Z,24.83
2017-10-10T13:28:52.868Z,23.71
2017-10-10T13:31:22.545Z,22.90
2017-10-10T13:33:51.350Z,22.31
2017-10-10T13:36:21.513Z,22.18
2017-10-10T13:38:51.587Z,21.94
2017-10-10T13:41:19.974Z,21.62
2017-10-10T13:43:48.325Z,21.40
2017-10-10T13:46:16.672Z,21.36
2017-10-10T13:48:45.589Z,20.61
2017-10-10T13:51:13.946Z,20.55
2017-10-10T13:53:43.088Z,20.48
2017-10-10T13:56:12.062Z,20.30
2017-10-10T13:58:40.998Z,19.53
2017-10-10T14:01:10.430Z,19.57
2017-10-10T14:03:39.308Z,19.50
2017-10-10T14:06:09.386Z,19.78
2017-10-10T14:08:37.756Z,19.72
2017-10-10T14:11:06.851Z,19.67
2017-10-10T14:13:35.211Z,19.79
2017-10-10T14:16:03.592Z,19.62
2017-10-10T14:18:32.458Z,19.02
2017-10-10T14:21:01.138Z,18.80
2017-10-10T14:23:29.592Z,18.65
2017-10-10T14:25:58.151Z,18.51
2017-10-10T14:28:26.521Z,18.50
2017-10-10T14:30:55.446Z,18.62
2017-10-10T14:33:23.826Z,18.38
2017-10-10T14:35:52.700Z,18.19
2017-10-10T14:38:21.108Z,18.21
2017-10-10T14:40:50.818Z,18.18
2017-10-10T14:43:20.075Z,18.18
2017-10-10T14:45:48.740Z,18.37
2017-10-10T14:48:18.118Z,18.18
2017-10-10T14:50:46.653Z,18.35
2017-10-10T14:53:15.052Z,18.39
2017-10-10T14:55:43.408Z,18.34
2017-10-10T14:58:11.793Z,17.90
2017-10-10T15:00:40.197Z,17.96
2017-10-10T15:03:08.894Z,18.00
2017-10-10T15:05:38.030Z,17.54
2017-10-10T15:08:06.407Z,17.31
2017-10-10T15:10:34.824Z,17.16
2017-10-10T15:13:03.188Z,17.25
2017-10-10T15:15:31.531Z,17.19
2017-10-10T15:18:00.685Z,17.40
2017-10-10T15:20:29.767Z,17.42
2017-10-10T15:22:58.151Z,17.14
2017-10-10T15:25:27.380Z,17.13
2017-10-10T15:27:56.473Z,16.97
2017-10-10T15:30:25.622Z,16.91
2017-10-10T15:32:53.993Z,17.12
2017-10-10T15:35:22.989Z,17.12
2017-10-10T15:37:52.284Z,17.12
2017-10-10T15:40:21.602Z,16.87
2017-10-10T15:42:50.624Z,16.59
2017-10-10T15:45:19.212Z,16.49
2017-10-10T15:47:47.979Z,16.66
2017-10-10T15:50:16.310Z,16.63
2017-10-10T15:52:44.662Z,16.74
2017-10-10T15:55:13.832Z,16.53
2017-10-10T15:57:43.428Z,16.52
2017-10-10T16:00:11.781Z,16.63
2017-10-10T16:02:40.729Z,16.98
2017-10-10T16:05:09.117Z,16.70
2017-10-10T16:07:37.504Z,16.44
2017-10-10T16:10:06.880Z,16.53
2017-10-10T16:12:35.263Z,16.60
2017-10-10T16:15:05.976Z,16.58
2017-10-10T16:17:34.469Z,16.66
2017-10-10T16:20:02.874Z,16.60
2017-10-10T16:22:31.547Z,16.51
2017-10-10T16:25:01.030Z,16.35
2017-10-10T16:27:30.091Z,16.51
2017-10-10T16:29:59.245Z,16.45
2017-10-10T16:32:28.092Z,16.20
2017-10-10T16:34:57.222Z,16.51
2017-10-10T16:37:26.743Z,16.60
2017-10-10T16:39:55.837Z,16.66
2017-10-10T16:42:24.804Z,16.56
2017-10-10T16:44:53.864Z,16.57
2017-10-10T16:47:22.262Z,16.84
2017-10-10T16:49:50.668Z,16.57
2017-10-10T16:52:19.097Z,16.57
2017-10-10T16:54:47.644Z,16.67
2017-10-10T16:57:16.336Z,16.17
2017-10-10T16:59:45.296Z,16.34
2017-10-10T17:02:14.450Z,16.34
2017-10-10T17:04:42.816Z,16.28
2017-10-10T17:07:11.992Z,16.19
2017-10-10T17:09:40.399Z,16.35
2017-10-10T17:12:08.776Z,16.33
2017-10-10T17:14:37.162Z,16.24
2017-10-10T17:17:07.550Z,16.15
2017-10-10T17:19:36.718Z,16.21
2017-10-10T17:22:06.184Z,16.45
2017-10-10T17:24:35.484Z,16.40
2017-10-10T17:27:03.870Z,16.53
2017-10-10T17:29:32.252Z,16.67
2017-10-10T17:32:00.627Z,16.42
2017-10-10T17:34:29.740Z,16.39
2017-10-10T17:36:58.069Z,16.49
2017-10-10T17:39:27.882Z,16.61
2017-10-10T17:41:56.986Z,16.64
2017-10-10T17:44:25.972Z,16.62
2017-10-10T17:46:55.898Z,16.80
2017-10-10T17:49:25.775Z,16.55
2017-10-10T17:51:55.461Z,16.65
2017-10-10T17:54:24.598Z,16.48
2017-10-10T17:56:53.505Z,16.27
2017-10-10T17:59:22.893Z,16.48
2017-10-10T18:01:51.266Z,16.35
2017-10-10T18:04:20.970Z,16.43
2017-10-10T18:06:49.380Z,16.25
2017-10-10T18:09:19.295Z,16.41
2017-10-10T18:11:49.485Z,16.36
2017-10-10T18:14:18.845Z,16.46
2017-10-10T18:16:48.798Z,16.50
2017-10-10T18:19:17.934Z,16.44
2017-10-10T18:21:46.980Z,16.53
2017-10-10T18:24:17.041Z,16.67
2017-10-10T18:26:45.628Z,16.75
2017-10-10T18:29:14.961Z,16.72
2017-10-10T18:31:44.114Z,16.87
2017-10-10T18:34:12.536Z,16.68
2017-10-10T18:36:43.081Z,16.62
2017-10-10T18:39:11.448Z,16.62
2017-10-10T18:41:40.587Z,16.48
2017-10-10T18:44:09.264Z,16.39
2017-10-10T18:46:38.498Z,16.66
2017-10-10T18:49:06.869Z,16.64
2017-10-10T18:51:35.844Z,16.62
2017-10-10T18:54:07.524Z,16.68
2017-10-10T18:56:36.862Z,16.90
2017-10-10T18:59:07.838Z,17.03
2017-10-10T19:01:37.919Z,16.59
2017-10-10T19:04:07.087Z,16.85
2017-10-10T19:06:35.798Z,17.01
2017-10-10T19:09:04.194Z,16.97
2017-10-10T19:11:33.224Z,16.97
2017-10-10T19:14:01.847Z,16.91
2017-10-10T19:16:31.600Z,16.74
2017-10-10T19:19:01.560Z,16.79
2017-10-10T19:21:29.953Z,16.93
2017-10-10T19:23:58.401Z,16.88
2017-10-10T19:26:26.793Z,16.97
2017-10-10T19:28:55.418Z,16.94
2017-10-10T19:31:24.195Z,16.99
2017-10-10T19:33:52.564Z,16.76
2017-10-10T19:36:22.034Z,16.88
2017-10-10T19:38:50.442Z,17.03
2017-10-10T19:41:18.965Z,16.76
2017-10-10T19:43:48.955Z,16.93
2017-10-10T19:46:17.623Z,16.78
2017-10-10T19:48:46.028Z,16.81
2017-10-10T19:51:16.057Z,16.97
2017-10-10T19:53:44.480Z,16.80
2017-10-10T19:56:13.879Z,16.76
2017-10-10T19:58:42.243Z,16.92
2017-10-10T20:01:12.810Z,17.19
2017-10-10T20:03:42.216Z,17.25
2017-10-10T20:06:10.959Z,17.18
2017-10-10T20:08:41.121Z,17.35
2017-10-10T20:11:09.561Z,17.19
2017-10-10T20:13:38.802Z,17.34
2017-10-10T20:16:07.294Z,17.37
2017-10-10T20:18:35.998Z,17.37
2017-10-10T20:21:07.099Z,17.42
2017-10-10T20:23:35.956Z,17.17
2017-10-10T20:26:04.318Z,17.10
2017-10-10T20:28:34.455Z,17.16
2017-10-10T20:31:04.065Z,17.25
2017-10-10T20:33:34.006Z,17.39
2017-10-10T20:36:02.371Z,17.34
2017-10-10T20:38:30.783Z,17.40
2017-10-10T20:41:01.230Z,17.26
2017-10-10T20:43:29.594Z,17.03
2017-10-10T20:45:58.579Z,17.18
2017-10-10T20:48:26.951Z,17.22
2017-10-10T20:50:55.333Z,17.38
2017-10-10T20:53:24.897Z,17.31
2017-10-10T20:55:53.623Z,17.12
2017-10-10T20:58:22.340Z,17.21
2017-10-10T21:00:50.726Z,17.12
2017-10-10T21:03:20.113Z,17.16
2017-10-10T21:05:49.197Z,17.31
2017-10-10T21:08:17.820Z,17.34
2017-10-10T21:10:46.208Z,17.29
2017-10-10T21:13:15.153Z,17.25
2017-10-10T21:15:43.723Z,17.18
2017-10-10T21:18:12.473Z,17.28
2017-10-10T21:20:40.830Z,17.07
2017-10-10T21:23:09.783Z,17.05
2017-10-10T21:25:38.134Z,17.04
2017-10-10T21:28:06.922Z,17.22
2017-10-10T21:30:35.971Z,17.10
2017-10-10T21:33:04.393Z,17.18
2017-10-10T21:35:33.556Z,17.11
2017-10-10T21:38:02.005Z,17.13
2017-10-10T21:40:30.377Z,17.10
2017-10-10T21:43:00.492Z,17.06
2017-10-10T21:45:32.158Z,16.87
2017-10-10T21:48:01.259Z,17.20
2017-10-10T21:50:30.611Z,17.13
2017-10-10T21:52:59.439Z,17.24
2017-10-10T21:55:30.254Z,17.00
2017-10-10T21:57:59.389Z,17.03
2017-10-10T22:00:29.736Z,17.02
2017-10-10T22:02:58.107Z,17.12
2017-10-10T22:05:27.260Z,17.20
2017-10-10T22:07:56.076Z,17.37
2017-10-10T22:10:24.441Z,17.34
2017-10-10T22:12:53.710Z,17.17
2017-10-10T22:15:22.079Z,17.23
2017-10-10T22:17:50.451Z,17.29
2017-10-10T22:20:18.797Z,17.24
2017-10-10T22:22:47.394Z,16.84
2017-10-10T22:25:16.306Z,16.77
2017-10-10T22:27:44.688Z,16.89
2017-10-10T22:30:13.063Z,16.92
2017-10-10T22:32:41.417Z,17.00
2017-10-10T22:35:09.750Z,16.71
2017-10-10T22:37:38.125Z,16.91
2017-10-10T22:40:06.476Z,16.95
2017-10-10T22:42:36.979Z,16.94
2017-10-10T22:45:05.623Z,16.81
2017-10-10T22:47:34.209Z,16.99
2017-10-10T22:50:02.631Z,16.85
2017-10-10T22:52:31.008Z,16.54
2017-10-10T22:54:59.682Z,16.36
2017-10-10T22:57:28.737Z,16.57
2017-10-10T22:59:57.465Z,16.62
2017-10-10T23:02:26.367Z,16.49
2017-10-10T23:04:55.744Z,16.50
2017-10-10T23:07:25.055Z,16.66
2017-10-10T23:09:54.838Z,16.75
2017-10-10T23:12:23.190Z,16.60
2017-10-10T23:14:51.669Z,16.72
2017-10-10T23:17:20.587Z,16.71
2017-10-10T23:19:49.816Z,16.58
2017-10-10T23:22:19.007Z,16.57
2017-10-10T23:24:48.156Z,16.78
2017-10-10T23:27:17.626Z,16.60
2017-10-10T23:29:47.655Z,16.80
2017-10-10T23:32:17.694Z,16.82
2017-10-10T23:34:46.371Z,16.88
2017-10-10T23:37:14.769Z,16.72
2017-10-10T23:39:43.674Z,16.78
2017-10-10T23:42:12.051Z,16.85
2017-10-10T23:44:40.426Z,16.82
2017-10-10T23:47:08.807Z,16.73
2017-10-10T23:49:37.179Z,16.90
2017-10-10T23:52:07.703Z,16.98
2017-10-10T23:54:36.817Z,16.95
2017-10-10T23:57:05.189Z,16.85
2017-10-10T23:59:33.584Z,16.71
